Ride Results

Q60 (22-07-2007)
Ride distance: 100.0 km Elevator

Outcomes - Q60 (22-07-2007)
Division No. of Entries Retired / DNE Completed Withdrawn Ineligible V/O Percentage Completed
HW 10 7 3 - - - 100.00%
MW 24 15 4 2 - 3 79.17%
LW 14 7 3 1 - 3 71.43%
JN 1 - 1 - - - 100.00%
TR 1 - 0 - - 1 0.00%
Totals 50 29 11 3 - 7 80.00%
Results - Q60 (22-07-2007)
No. Rider Horse Place Time Leg Speeds Total
Km/Hr
H/R bpm
Heavyweight
25 Peter Norman Bellarine Bozo 1 (BC) 6:33:00 15.4, 14.4, 16.4 15.27 35, 39, 49, 46 (Avg:44)
49 Allan Caslick A'Landell Marli 2 8:31:00 12.3, 10.8, 12.1 11.74 38, 43, 44, 47 (Avg:44)
4 John Howe Glen Echo Buddy 3 9:15:00 10.1, 10.6, 12.9 10.81 36, 38, 45, 45 (Avg:42)
5 Len Derkacz Torryburn Rahal Retired/DNE L2 7:07:00 11.6, 10.7 11.24 36, 38, 48 (Avg:43)
34 Paul Cutcliff Cant'e Tinza Retired/DNE L2 7:21:00 11.7, 9.9 10.88 43, 39, 43 (Avg:41)
23 Rod Mitchell Aloha Naja Retired/DNE L2 7:24:00 12.0, 9.5 10.81 28, 39, 44 (Avg:41)
14 Con Bouzianis Conderosa Farah Retired/DNE L2 8:13:00 10.7, 8.6 9.74 44, 44, 52 (Avg:48)
12 Sue Warren Warren Park O.B. One Retired/DNE L2 9:02:00 9.1, 8.5 8.86 33, 41, 44 (Avg:42)
29 Paddy Smith Jamaal Retired/DNE L2 9:43:00 8.2, 8.2 8.23 40, 43, 49 (Avg:46)
32 Scott Maxwell Carlwood Park Sam Retired/DNE L2 9:52:00 7.8, 8.5 8.11 39, 48, 58 (Avg:53)
Middleweight
9 Jennifer Gilbertson Kurrajong Shadad 1 6:56:00 14.3, 12.2, 21.0 14.42 34, 40, 43, 48 (Avg:43)
3 Amanda Jansen Master Renaut (Ferrymaster at Webbs Creek) 1 (BC) 6:56:00 14.3, 12.2, 21.0 14.42 30, 39, 42, 42 (Avg:41)
16 Lindsay Hine Harmere Amira 3 7:11:00 14.6, 12.7, 14.6 13.92 39, 40, 42, 47 (Avg:43)
48 Sandi Brown Alandell Muskett 4 9:15:00 11.0, 9.1, 14.9 10.81 30, 41, 44, 52 (Avg:45)
26 Carol Major Major Luke Retired/DNE L2 6:47:00 12.3, 11.1 11.79 37, 40, 44 (Avg:42)
6 Brian Klatt Salam Zahbeel Retired/DNE L2 7:07:00 11.6, 10.7 11.24 40, 46, 51 (Avg:48)
35 Cheryl Strachan Mira Monte Dance On Retired/DNE L2 7:59:00 10.1, 9.8 10.02 30, 37, 48 (Avg:42)
28 Saiad Naim Sadat Aloha Petra Retired/DNE L2 8:01:00 11.2, 8.7 9.98 33, 37, 37 (Avg:37)
42 Peter Brown Heste Arabique Waterloo Retired/DNE L2 8:25:00 11.1, 8.0 9.50 45, 46, 53 (Avg:49)
21 Fiona Coddington Erin Park Troy Retired/DNE L2 9:01:00 8.7, 9.0 8.87 36, 48, 55 (Avg:51)
50 Kerry Topic Shazam Retired/DNE L2 9:01:00 9.7, 7.9 8.87 36, 42, 44 (Avg:43)
43 April Bonham Farras Retired/DNE L2 9:02:00 9.4, 8.1 8.86 39, 42, 43 (Avg:42)
44 Stuart Hitchcock Ralvon Courier Retired/DNE L2 9:02:00 9.4, 8.1 8.86 38, 42, 46 (Avg:44)
7 Megan Edey Zagora Retired/DNE L2 9:04:00 9.0, 8.6 8.82 32, 37, 44 (Avg:40)
10 Felicity Baird Raymar Yasmin (exp BH) Retired/DNE L2 9:19:00 9.0, 8.0 8.59 41, 34, 39 (Avg:36)
11 Mark Harvey Raymar Lyla Retired/DNE L2 9:19:00 9.0, 8.0 8.59 36, 38, 40 (Avg:39)
33 Chris Turnbull Charlie Retired/DNE L2 9:52:00 7.8, 8.5 8.11 44, 45, 46 (Avg:45)
46 Allison Knihinicki Tuldar Desert Falcon Retired/DNE L2 9:53:00 8.4, 7.6 8.09 40, 40, 44 (Avg:42)
19 Amanda Luthy Robian Samanna Retired/DNE L2 9:53:00 8.0, 8.2 8.09 36, 36, 38 (Avg:37)
20 Margaret Boland Sylvan Hill Ruby Fire Widthdrawn L1 0:00:00 - - 42, 34 (Avg:34)
41 Wayne Johnson Desert Duelers Con Lame L1 0:00:00 11.2 - 35, 42 (Avg:42)
39 Fiona Meller Malu Vale Embers Lame L1 0:00:00 9.8 - 29, 35 (Avg:35)
2 Karin Santoso Castlebar Musteke Lame L1 0:00:00 9.7 - 36, 43 (Avg:43)
47 Rochelle Knihinicki Tuldar Ronnie Widthdrawn P/R 0:00:00 - - 33
Lightweight
27 Tara Brown Mountain Breeze Jack The Ripper 1 6:33:00 15.3, 14.5, 16.4 15.27 33, 27, 51, 46 (Avg:41)
40 Emily Streckfuss Webbs Creek Starlight 2 6:56:00 14.2, 12.3, 21.0 14.42 32, 37, 44, 44 (Avg:41)
18 Melanie Anderson Ausden Kon Tiki 3 8:31:00 12.3, 10.8, 12.1 11.74 40, 41, 45, 47 (Avg:44)
22 Julie Brooks Aloha Byshara Retired/DNE L2 7:04:00 12.8, 9.8 11.32 32, 41, 42 (Avg:41)
13 Katrina Robinson Autumn Night Hazeem Retired/DNE L2 7:46:00 11.2, 9.2 10.30 46, 35, 39 (Avg:37)
37 Jennifer Walker Bellview Sharman Retired/DNE L2 7:57:00 12.0, 8.3 10.06 36, 46, 43 (Avg:44)
15 Debbie Pevy Conderosa Sara Retired/DNE L2 8:13:00 10.7, 8.6 9.74 30, 35, 40 (Avg:37)
17 Annette Gifford Porcelyn Bey Retired/DNE L2 8:46:00 9.5, 8.6 9.13 38, 42, 47 (Avg:44)
36 Mary Hollingsworth Arundel House Shahtoon Retired/DNE L2 8:46:00 8.4, 10.1 9.13 44, 44, 47 (Avg:45)
31 Kate Campbell Cagiva Retired/DNE L2 9:52:00 7.8, 8.5 8.11 32, 34, 43 (Avg:38)
8 Claire Edey Webbs Creek Rising Fast Lame L2 0:00:00 9.0, 8.6 - 33, 38, 45 (Avg:41)
24 Shelly Ison Valinor Park Opal Lame L1 0:00:00 15.4 - 42, 39 (Avg:39)
38 Wendy Jones Roomadee Safeer Lame L1 0:00:00 8.4 - 33, 47 (Avg:47)
30 Adele Sonter Swiftwood Eternal Flame Widthdrawn L1 0:00:00 - - 41, 43 (Avg:43)
Junior
45 Allix Jones Shellal Cattle King Flyte 1 8:31:00 12.3, 10.8, 12.1 11.74 37, 46, 45, 47 (Avg:46)
Training
1 Paul Keyes Coolahlee Park Sarah Lame L2 0:00:00 15.3, 14.5 - 31, 42, 48 (Avg:45)